Time;durP1;ratioP1;P1;durP2;ratioP2;P2;SDS_P1;SDS_P2;PMS_P1;PMS_P2;Temp;Humidity;BMP_temperature;BMP_pressure;BME280_temperature;BME280_humidity;BME280_pressure;Samples;Min_cycle;Max_cycle;Signal;HPM_P1;HPM_P2
2021/10/23 00:00:48;;;;;;;87.30;52.97;;;;;;;;;;4927015;29;20528;-84
2021/10/23 00:03:15;;;;;;;91.07;54.92;;;;;;;;;;4921502;29;20459;-84
2021/10/23 00:05:42;;;;;;;98.50;57.28;;;;;;;;;;4925148;29;20426;-83
2021/10/23 00:08:09;;;;;;;108.13;60.03;;;;;;;;;;4928860;29;20417;-83
2021/10/23 00:10:36;;;;;;;106.07;61.20;;;;;;;;;;4928688;29;20771;-85
2021/10/23 00:13:04;;;;;;;116.65;62.40;;;;;;;;;;4925189;29;20418;-84
2021/10/23 00:15:31;;;;;;;115.32;61.15;;;;;;;;;;4928264;29;20506;-83
2021/10/23 00:17:58;;;;;;;116.78;62.45;;;;;;;;;;4924817;29;20430;-84
2021/10/23 00:20:25;;;;;;;123.03;63.63;;;;;;;;;;4931199;29;20421;-84
2021/10/23 00:22:52;;;;;;;127.83;65.30;;;;;;;;;;4926022;29;20481;-83
2021/10/23 00:25:19;;;;;;;120.88;63.13;;;;;;;;;;4927835;29;20485;-84
2021/10/23 00:27:46;;;;;;;126.43;63.05;;;;;;;;;;4923842;29;20468;-85
2021/10/23 00:30:16;;;;;;;125.38;62.35;;;;;;;;;;4928742;29;20418;-83
2021/10/23 00:32:44;;;;;;;123.60;61.42;;;;;;;;;;4925696;29;20816;-83
2021/10/23 00:35:11;;;;;;;125.63;58.80;;;;;;;;;;4952284;23;20428;-85
2021/10/23 00:37:37;;;;;;;121.53;60.45;;;;;;;;;;4944184;28;20465;-86
2021/10/23 00:40:06;;;;;;;135.87;61.53;;;;;;;;;;4939521;29;20459;-86
2021/10/23 00:42:34;;;;;;;127.28;61.47;;;;;;;;;;4949806;28;20428;-85
2021/10/23 00:45:01;;;;;;;128.73;60.88;;;;;;;;;;4942480;28;20498;-85
2021/10/23 00:47:29;;;;;;;142.68;63.42;;;;;;;;;;4944179;28;20419;-85
2021/10/23 00:49:56;;;;;;;139.57;63.92;;;;;;;;;;4947262;29;20419;-86
2021/10/23 00:52:24;;;;;;;127.65;62.00;;;;;;;;;;4941156;28;20452;-85
2021/10/23 00:54:52;;;;;;;126.00;59.20;;;;;;;;;;4945215;28;20408;-85
2021/10/23 00:57:19;;;;;;;127.60;61.35;;;;;;;;;;4943004;29;21236;-86
2021/10/23 00:59:46;;;;;;;128.05;60.67;;;;;;;;;;4944450;28;20438;-85
2021/10/23 01:02:13;;;;;;;125.65;60.10;;;;;;;;;;4940377;28;20927;-86
2021/10/23 01:04:42;;;;;;;130.20;60.58;;;;;;;;;;4937572;29;20925;-85
2021/10/23 01:07:09;;;;;;;135.73;63.42;;;;;;;;;;4936587;28;20421;-84
2021/10/23 01:09:38;;;;;;;139.95;63.35;;;;;;;;;;4939204;29;20435;-84
2021/10/23 01:12:07;;;;;;;132.27;61.75;;;;;;;;;;4943588;29;20411;-85
2021/10/23 01:14:34;;;;;;;139.52;63.97;;;;;;;;;;4940134;28;20426;-85
2021/10/23 01:17:01;;;;;;;146.02;62.83;;;;;;;;;;4941243;28;20471;-86
2021/10/23 01:19:28;;;;;;;141.38;61.65;;;;;;;;;;4936417;29;20432;-86
2021/10/23 01:21:56;;;;;;;132.50;61.37;;;;;;;;;;4940913;28;20415;-85
2021/10/23 01:24:24;;;;;;;138.73;62.03;;;;;;;;;;4940507;29;20413;-85
2021/10/23 01:26:51;;;;;;;124.80;61.22;;;;;;;;;;4942683;28;20444;-86
2021/10/23 01:29:20;;;;;;;122.03;59.60;;;;;;;;;;4937181;28;20894;-86
2021/10/23 01:31:48;;;;;;;113.30;56.05;;;;;;;;;;4941258;29;20419;-85
2021/10/23 01:34:17;;;;;;;112.65;57.47;;;;;;;;;;4941278;28;20427;-85
2021/10/23 01:36:46;;;;;;;110.55;55.83;;;;;;;;;;4935869;29;20416;-85
2021/10/23 01:39:15;;;;;;;109.70;54.42;;;;;;;;;;4924568;28;20796;-84
2021/10/23 01:41:42;;;;;;;107.20;53.65;;;;;;;;;;4942324;29;20415;-85
2021/10/23 01:44:10;;;;;;;102.13;52.90;;;;;;;;;;4937219;29;20427;-86
2021/10/23 01:46:38;;;;;;;111.53;52.33;;;;;;;;;;4943195;28;20428;-85
2021/10/23 01:49:06;;;;;;;100.43;51.72;;;;;;;;;;4943327;29;20401;-86
2021/10/23 01:51:33;;;;;;;114.50;51.20;;;;;;;;;;4942007;28;20499;-85
2021/10/23 01:54:03;;;;;;;106.32;51.17;;;;;;;;;;4943305;29;20416;-86
2021/10/23 01:56:32;;;;;;;120.50;53.40;;;;;;;;;;4942610;28;20928;-85
2021/10/23 01:58:59;;;;;;;109.32;50.10;;;;;;;;;;4940395;29;20439;-85
2021/10/23 02:01:26;;;;;;;124.43;50.42;;;;;;;;;;4938755;29;20417;-85
2021/10/23 02:03:53;;;;;;;106.53;49.67;;;;;;;;;;4897619;29;20414;-86
2021/10/23 02:06:20;;;;;;;95.53;48.50;;;;;;;;;;4928835;29;20418;-85
2021/10/23 02:08:47;;;;;;;140.80;49.38;;;;;;;;;;4946236;29;20415;-86
2021/10/23 02:11:15;;;;;;;134.10;48.30;;;;;;;;;;4955606;28;20905;-85
2021/10/23 02:13:44;;;;;;;104.03;48.27;;;;;;;;;;4939828;28;20901;-85
2021/10/23 02:16:11;;;;;;;88.82;47.42;;;;;;;;;;4933325;28;20437;-86
2021/10/23 02:18:38;;;;;;;120.80;46.55;;;;;;;;;;4930160;29;20429;-85
2021/10/23 02:21:06;;;;;;;86.18;46.70;;;;;;;;;;4940727;28;20419;-84
2021/10/23 02:23:33;;;;;;;99.00;46.35;;;;;;;;;;4936345;28;20413;-86
2021/10/23 02:26:00;;;;;;;91.25;47.20;;;;;;;;;;4926622;28;20421;-86
2021/10/23 02:28:27;;;;;;;91.60;46.60;;;;;;;;;;4926757;29;20406;-86
2021/10/23 02:30:55;;;;;;;90.53;44.67;;;;;;;;;;4936099;28;20824;-86
2021/10/23 02:33:22;;;;;;;84.03;44.77;;;;;;;;;;4926894;28;20508;-84
2021/10/23 02:35:49;;;;;;;90.30;44.60;;;;;;;;;;4939522;28;20417;-85
2021/10/23 02:38:16;;;;;;;86.25;44.38;;;;;;;;;;4927134;29;20402;-86
2021/10/23 02:40:43;;;;;;;112.32;46.08;;;;;;;;;;4943234;29;20439;-85
2021/10/23 02:43:10;;;;;;;98.63;45.30;;;;;;;;;;4937879;29;20511;-85
2021/10/23 02:45:37;;;;;;;94.65;45.33;;;;;;;;;;4934297;28;20421;-85
2021/10/23 02:48:06;;;;;;;109.70;46.23;;;;;;;;;;4938301;28;20416;-86
2021/10/23 02:50:33;;;;;;;96.28;46.17;;;;;;;;;;4929993;28;20417;-86
2021/10/23 02:53:00;;;;;;;138.32;47.83;;;;;;;;;;4931091;28;20425;-85
2021/10/23 02:55:27;;;;;;;132.95;48.05;;;;;;;;;;4930960;29;20422;-86
2021/10/23 02:57:54;;;;;;;90.28;44.70;;;;;;;;;;4930743;28;20436;-85
2021/10/23 03:00:21;;;;;;;155.25;48.17;;;;;;;;;;4935894;29;20433;-85
2021/10/23 03:02:48;;;;;;;125.13;46.80;;;;;;;;;;4930576;29;20496;-86
2021/10/23 03:05:17;;;;;;;100.32;46.33;;;;;;;;;;4940196;28;20404;-85
2021/10/23 03:07:44;;;;;;;143.30;46.83;;;;;;;;;;4948292;29;21019;-84
2021/10/23 03:10:11;;;;;;;119.97;46.00;;;;;;;;;;4949798;29;20467;-85
2021/10/23 03:12:38;;;;;;;83.95;43.85;;;;;;;;;;4950048;29;20427;-85
2021/10/23 03:15:06;;;;;;;122.95;46.28;;;;;;;;;;4931592;28;20418;-85
2021/10/23 03:17:33;;;;;;;135.30;48.33;;;;;;;;;;4940436;29;20407;-86
2021/10/23 03:20:01;;;;;;;210.53;49.23;;;;;;;;;;4944355;28;20438;-85
2021/10/23 03:22:29;;;;;;;103.32;46.45;;;;;;;;;;4940106;28;20410;-85
2021/10/23 03:24:56;;;;;;;126.60;46.38;;;;;;;;;;4939018;28;20409;-85
2021/10/23 03:27:23;;;;;;;155.55;46.70;;;;;;;;;;4942233;29;20817;-85
2021/10/23 03:29:51;;;;;;;84.20;43.70;;;;;;;;;;4940811;29;20943;-85
2021/10/23 03:32:18;;;;;;;81.93;43.05;;;;;;;;;;4936668;28;20427;-85
2021/10/23 03:34:45;;;;;;;71.47;42.88;;;;;;;;;;4942841;28;20415;-86
2021/10/23 03:37:13;;;;;;;92.63;45.05;;;;;;;;;;4957734;28;20412;-85
2021/10/23 03:39:43;;;;;;;125.33;44.10;;;;;;;;;;4949357;28;20531;-85
2021/10/23 03:42:09;;;;;;;93.03;43.95;;;;;;;;;;4949362;28;20472;-85
2021/10/23 03:44:36;;;;;;;82.97;43.40;;;;;;;;;;4961127;28;20411;-85
2021/10/23 03:47:03;;;;;;;136.63;45.45;;;;;;;;;;4957552;28;20416;-85
2021/10/23 03:49:30;;;;;;;161.93;45.85;;;;;;;;;;4962389;28;20750;-85
2021/10/23 03:51:58;;;;;;;160.00;45.87;;;;;;;;;;4960079;28;20461;-85
2021/10/23 03:54:25;;;;;;;134.70;46.55;;;;;;;;;;4949833;28;20777;-85
2021/10/23 03:56:53;;;;;;;124.80;46.27;;;;;;;;;;4961628;28;20406;-85
2021/10/23 03:59:20;;;;;;;92.15;45.55;;;;;;;;;;4960000;28;20426;-86
2021/10/23 04:01:47;;;;;;;72.65;44.05;;;;;;;;;;4953730;28;20431;-84
2021/10/23 04:04:13;;;;;;;69.67;42.47;;;;;;;;;;4950260;28;20531;-85
2021/10/23 04:06:40;;;;;;;66.97;42.75;;;;;;;;;;4953381;28;20420;-85
2021/10/23 04:09:07;;;;;;;111.40;43.83;;;;;;;;;;4957870;28;20410;-85
2021/10/23 04:11:34;;;;;;;90.30;42.90;;;;;;;;;;4961799;28;20414;-85
2021/10/23 04:14:02;;;;;;;93.05;43.13;;;;;;;;;;4962857;28;20410;-85
2021/10/23 04:16:29;;;;;;;127.72;42.65;;;;;;;;;;4958907;28;20944;-86
2021/10/23 04:18:56;;;;;;;137.38;44.45;;;;;;;;;;4962482;28;20403;-85
2021/10/23 04:21:23;;;;;;;102.47;42.70;;;;;;;;;;4962776;28;20410;-85
2021/10/23 04:23:50;;;;;;;152.45;45.47;;;;;;;;;;4961891;28;20409;-86
2021/10/23 04:26:17;;;;;;;132.93;45.45;;;;;;;;;;4965183;28;20410;-86
2021/10/23 04:28:44;;;;;;;104.55;44.92;;;;;;;;;;4961946;28;20422;-85
2021/10/23 04:31:12;;;;;;;229.75;47.85;;;;;;;;;;4965253;28;20426;-85
2021/10/23 04:33:39;;;;;;;88.05;44.42;;;;;;;;;;4958938;28;20402;-87
2021/10/23 04:36:06;;;;;;;381.23;53.80;;;;;;;;;;4961726;28;20830;-85
2021/10/23 04:38:33;;;;;;;309.20;54.95;;;;;;;;;;4964541;28;20418;-86
2021/10/23 04:41:00;;;;;;;223.45;48.25;;;;;;;;;;4962477;28;20822;-86
2021/10/23 04:43:26;;;;;;;116.47;43.30;;;;;;;;;;4963655;28;20403;-86
2021/10/23 04:45:53;;;;;;;121.73;43.23;;;;;;;;;;4960532;28;20429;-86
2021/10/23 04:48:22;;;;;;;69.95;41.42;;;;;;;;;;4965790;28;20417;-86
2021/10/23 04:50:48;;;;;;;115.60;41.42;;;;;;;;;;4963960;28;20415;-86
2021/10/23 04:53:15;;;;;;;101.47;40.60;;;;;;;;;;4962967;28;20525;-86
2021/10/23 04:55:42;;;;;;;81.03;40.10;;;;;;;;;;4963983;28;20418;-86
2021/10/23 04:58:09;;;;;;;61.13;38.20;;;;;;;;;;4961585;28;20453;-85
2021/10/23 05:00:36;;;;;;;56.03;38.25;;;;;;;;;;4942553;28;20434;-85
2021/10/23 05:03:03;;;;;;;68.70;38.92;;;;;;;;;;4962248;28;20422;-85
2021/10/23 05:05:31;;;;;;;66.85;39.33;;;;;;;;;;4963646;28;20775;-85
2021/10/23 05:07:58;;;;;;;125.77;41.60;;;;;;;;;;4963946;28;20414;-83
2021/10/23 05:10:25;;;;;;;195.13;44.47;;;;;;;;;;4964931;28;20406;-85
2021/10/23 05:12:52;;;;;;;137.60;43.13;;;;;;;;;;4961268;28;20411;-84
2021/10/23 05:15:19;;;;;;;163.90;44.22;;;;;;;;;;4951561;28;20554;-84
2021/10/23 05:17:46;;;;;;;74.35;42.05;;;;;;;;;;4959268;28;20418;-85
2021/10/23 05:20:13;;;;;;;58.23;39.00;;;;;;;;;;4960685;28;20429;-85
2021/10/23 05:22:42;;;;;;;77.57;39.90;;;;;;;;;;4960987;28;20417;-84
2021/10/23 05:25:09;;;;;;;65.05;40.20;;;;;;;;;;4960731;28;20418;-84
2021/10/23 05:27:36;;;;;;;52.10;38.50;;;;;;;;;;4961350;28;20822;-85
2021/10/23 05:30:04;;;;;;;56.87;38.53;;;;;;;;;;4961219;28;21043;-84
2021/10/23 05:32:31;;;;;;;46.83;35.20;;;;;;;;;;4965513;28;20410;-82
2021/10/23 05:34:58;;;;;;;48.95;36.55;;;;;;;;;;4962236;28;20414;-84
2021/10/23 05:37:24;;;;;;;52.45;37.47;;;;;;;;;;4961028;28;21202;-85
2021/10/23 05:39:52;;;;;;;51.55;38.88;;;;;;;;;;4968173;28;20429;-85
2021/10/23 05:42:19;;;;;;;50.28;38.47;;;;;;;;;;4960515;28;20426;-82
2021/10/23 05:44:46;;;;;;;50.00;37.13;;;;;;;;;;4961291;28;20456;-85
2021/10/23 05:47:13;;;;;;;48.05;35.35;;;;;;;;;;4955184;28;20418;-85
2021/10/23 05:49:40;;;;;;;47.95;35.65;;;;;;;;;;4954457;28;20579;-84
2021/10/23 05:52:07;;;;;;;47.88;35.88;;;;;;;;;;4957069;28;20406;-84
2021/10/23 05:54:37;;;;;;;46.78;35.33;;;;;;;;;;4958688;28;20441;-84
2021/10/23 05:57:07;;;;;;;45.65;35.47;;;;;;;;;;4959562;28;20765;-85
2021/10/23 05:59:36;;;;;;;46.40;35.40;;;;;;;;;;4953416;28;20430;-84
2021/10/23 06:02:21;;;;;;;46.70;35.25;;;;;;;;;;4957684;28;20418;-86
2021/10/23 06:04:47;;;;;;;43.60;34.75;;;;;;;;;;4956700;28;20829;-83
2021/10/23 06:07:14;;;;;;;44.17;34.53;;;;;;;;;;4959948;28;20410;-85
2021/10/23 06:09:41;;;;;;;43.77;34.17;;;;;;;;;;4958803;28;20458;-85
2021/10/23 06:12:10;;;;;;;42.88;33.58;;;;;;;;;;4960583;28;20655;-86
2021/10/23 06:14:37;;;;;;;44.20;34.80;;;;;;;;;;4960389;28;20410;-84
2021/10/23 06:17:05;;;;;;;47.13;35.42;;;;;;;;;;4959583;28;20761;-84
2021/10/23 06:19:32;;;;;;;44.03;34.95;;;;;;;;;;4959980;28;20414;-84
2021/10/23 06:21:58;;;;;;;46.50;36.13;;;;;;;;;;4963012;28;20404;-84
2021/10/23 06:24:25;;;;;;;42.78;34.67;;;;;;;;;;4963670;28;20917;-84
2021/10/23 06:26:52;;;;;;;44.35;34.80;;;;;;;;;;4963551;28;20443;-85
2021/10/23 06:29:20;;;;;;;43.58;34.60;;;;;;;;;;4966858;28;20405;-84
2021/10/23 06:31:47;;;;;;;43.28;33.40;;;;;;;;;;4963643;28;20423;-85
2021/10/23 06:34:14;;;;;;;43.88;34.08;;;;;;;;;;4967287;28;20406;-85
2021/10/23 06:36:41;;;;;;;41.05;32.65;;;;;;;;;;4959425;28;20428;-84
2021/10/23 06:39:08;;;;;;;40.22;32.50;;;;;;;;;;4968523;28;20402;-83
2021/10/23 06:41:35;;;;;;;42.70;33.28;;;;;;;;;;4965216;28;21153;-84
2021/10/23 06:44:02;;;;;;;45.20;34.20;;;;;;;;;;4958346;28;20517;-83
2021/10/23 06:46:31;;;;;;;46.95;35.45;;;;;;;;;;4961256;28;20408;-84
2021/10/23 06:48:57;;;;;;;47.60;34.23;;;;;;;;;;4960947;28;20502;-83
2021/10/23 06:51:25;;;;;;;45.50;35.22;;;;;;;;;;4967206;28;20418;-84
2021/10/23 06:53:55;;;;;;;44.35;34.53;;;;;;;;;;4961471;28;20885;-84
2021/10/23 06:56:21;;;;;;;43.35;33.88;;;;;;;;;;4967750;28;20410;-84
2021/10/23 06:58:48;;;;;;;43.72;33.75;;;;;;;;;;4960414;28;20426;-84
2021/10/23 07:01:15;;;;;;;42.05;31.83;;;;;;;;;;4962092;28;20422;-85
2021/10/23 07:03:44;;;;;;;42.90;32.33;;;;;;;;;;4958981;28;20411;-84
2021/10/23 07:06:11;;;;;;;40.70;31.48;;;;;;;;;;4955004;28;20418;-83
2021/10/23 07:08:38;;;;;;;41.38;32.22;;;;;;;;;;4966901;28;20414;-84
2021/10/23 07:11:05;;;;;;;40.22;30.65;;;;;;;;;;4961727;28;20755;-84
2021/10/23 07:13:32;;;;;;;38.80;30.85;;;;;;;;;;4965478;28;21293;-84
2021/10/23 07:15:59;;;;;;;38.67;30.52;;;;;;;;;;4967493;28;20490;-84
2021/10/23 07:18:25;;;;;;;38.78;30.55;;;;;;;;;;4959969;28;20419;-84
2021/10/23 07:20:54;;;;;;;37.55;30.60;;;;;;;;;;4960180;28;20812;-83
2021/10/23 07:23:20;;;;;;;38.33;30.20;;;;;;;;;;4960201;28;20468;-84
2021/10/23 07:25:47;;;;;;;36.92;29.45;;;;;;;;;;4962761;28;20485;-84
2021/10/23 07:28:14;;;;;;;36.28;29.17;;;;;;;;;;4956820;28;20410;-85
2021/10/23 07:30:41;;;;;;;34.25;28.08;;;;;;;;;;4964876;28;20407;-86
2021/10/23 07:33:08;;;;;;;33.60;26.98;;;;;;;;;;4962474;28;20969;-84
2021/10/23 07:35:35;;;;;;;33.03;26.13;;;;;;;;;;4964034;28;20741;-85
2021/10/23 07:38:04;;;;;;;30.90;25.95;;;;;;;;;;4961642;28;20424;-85
2021/10/23 07:40:31;;;;;;;32.72;25.42;;;;;;;;;;4962580;28;20467;-86
2021/10/23 07:42:58;;;;;;;30.95;25.60;;;;;;;;;;4964422;28;20486;-86
2021/10/23 07:45:25;;;;;;;34.28;25.38;;;;;;;;;;4961512;28;20960;-86
2021/10/23 07:47:52;;;;;;;32.30;24.88;;;;;;;;;;4963023;28;20483;-87
2021/10/23 07:50:19;;;;;;;29.60;23.88;;;;;;;;;;4961675;28;20402;-86
2021/10/23 07:52:46;;;;;;;32.17;25.25;;;;;;;;;;4966397;28;20406;-85
2021/10/23 07:55:15;;;;;;;32.63;25.42;;;;;;;;;;4959931;28;20410;-86
2021/10/23 07:57:43;;;;;;;32.58;25.35;;;;;;;;;;4962560;28;20410;-85
2021/10/23 08:00:11;;;;;;;31.17;24.50;;;;;;;;;;4962590;28;20422;-85
2021/10/23 08:02:48;;;;;;;28.55;23.83;;;;;;;;;;4964526;28;20440;-86
2021/10/23 08:05:15;;;;;;;31.63;23.30;;;;;;;;;;4951257;28;20431;-85
2021/10/23 08:07:43;;;;;;;32.03;23.08;;;;;;;;;;4951573;28;20407;-85
2021/10/23 08:10:09;;;;;;;28.25;23.30;;;;;;;;;;4963031;28;20450;-85
2021/10/23 08:12:38;;;;;;;29.08;23.02;;;;;;;;;;4957380;28;20725;-85
2021/10/23 08:15:05;;;;;;;28.92;22.38;;;;;;;;;;4960839;28;20426;-85
2021/10/23 08:17:32;;;;;;;27.30;22.02;;;;;;;;;;4960320;28;20415;-86
2021/10/23 08:19:59;;;;;;;26.50;20.92;;;;;;;;;;4955541;28;20406;-86
2021/10/23 08:22:26;;;;;;;23.92;20.63;;;;;;;;;;4963726;28;20437;-86
2021/10/23 08:24:53;;;;;;;24.75;20.70;;;;;;;;;;4955942;28;20862;-88
2021/10/23 08:27:20;;;;;;;28.90;22.17;;;;;;;;;;4958426;28;20411;-87
2021/10/23 08:29:48;;;;;;;28.17;20.77;;;;;;;;;;4955463;28;20426;-86
2021/10/23 08:32:16;;;;;;;24.20;20.00;;;;;;;;;;4959379;28;20767;-82
2021/10/23 08:34:43;;;;;;;24.52;19.77;;;;;;;;;;4948107;28;20501;-87
2021/10/23 08:37:11;;;;;;;22.27;18.50;;;;;;;;;;4962892;28;20965;-86
2021/10/23 08:39:37;;;;;;;20.85;17.30;;;;;;;;;;4964358;28;20418;-87
2021/10/23 08:42:04;;;;;;;21.35;17.33;;;;;;;;;;4960448;28;20441;-88
2021/10/23 08:44:32;;;;;;;22.58;18.00;;;;;;;;;;4959923;28;20471;-87
2021/10/23 08:47:01;;;;;;;20.23;16.98;;;;;;;;;;4960124;28;20915;-86
2021/10/23 08:49:29;;;;;;;22.67;17.60;;;;;;;;;;4962046;28;20399;-86
2021/10/23 08:51:56;;;;;;;20.53;17.27;;;;;;;;;;4963241;28;20410;-87
2021/10/23 08:54:23;;;;;;;22.80;17.58;;;;;;;;;;4964601;28;20401;-86
2021/10/23 08:56:50;;;;;;;22.88;17.05;;;;;;;;;;4965097;28;20422;-87
2021/10/23 08:59:16;;;;;;;20.27;16.77;;;;;;;;;;4961975;28;20680;-86
2021/10/23 09:01:44;;;;;;;21.23;16.52;;;;;;;;;;4963079;28;20422;-87
2021/10/23 09:04:12;;;;;;;20.63;17.10;;;;;;;;;;4961206;28;20450;-86
2021/10/23 09:06:40;;;;;;;23.38;16.70;;;;;;;;;;4963939;28;20407;-87
2021/10/23 09:09:10;;;;;;;21.92;16.15;;;;;;;;;;4963664;28;20414;-85
2021/10/23 09:11:39;;;;;;;19.70;16.08;;;;;;;;;;4956857;28;20854;-85
2021/10/23 09:14:24;;;;;;;21.45;17.85;;;;;;;;;;4963621;28;21036;-86
2021/10/23 09:17:04;;;;;;;21.85;18.35;;;;;;;;;;4962731;28;20418;-86
2021/10/23 09:19:38;;;;;;;24.05;18.08;;;;;;;;;;4951127;28;20427;-84
2021/10/23 09:22:08;;;;;;;22.85;18.67;;;;;;;;;;4954648;28;20439;-88
2021/10/23 09:24:35;;;;;;;23.02;17.95;;;;;;;;;;4958830;28;20406;-88
2021/10/23 09:27:14;;;;;;;25.63;18.63;;;;;;;;;;4964976;28;20425;-81
2021/10/23 09:29:40;;;;;;;23.58;17.85;;;;;;;;;;4958145;28;20406;-79
2021/10/23 09:32:10;;;;;;;20.33;17.37;;;;;;;;;;4958837;28;20505;-79
2021/10/23 09:34:39;;;;;;;20.43;17.10;;;;;;;;;;4958159;28;20916;-79
2021/10/23 09:37:06;;;;;;;21.58;17.33;;;;;;;;;;4939110;28;20514;-88
2021/10/23 09:39:35;;;;;;;21.42;16.65;;;;;;;;;;4936817;29;20774;-88
2021/10/23 09:42:07;;;;;;;16.17;12.30;;;;;;;;;;4933289;29;20684;-87
2021/10/23 09:44:35;;;;;;;12.83;10.77;;;;;;;;;;4937918;28;20471;-88
2021/10/23 09:47:02;;;;;;;13.98;10.80;;;;;;;;;;4936484;28;21138;-88
2021/10/23 09:49:28;;;;;;;13.55;10.02;;;;;;;;;;4940391;28;20423;-88
2021/10/23 09:52:08;;;;;;;14.20;10.00;;;;;;;;;;4943046;28;20789;-89
2021/10/23 09:54:37;;;;;;;12.73;10.23;;;;;;;;;;4943413;28;20408;-87
2021/10/23 09:57:11;;;;;;;13.15;10.38;;;;;;;;;;4946651;28;20410;-87
2021/10/23 09:59:42;;;;;;;14.05;9.85;;;;;;;;;;4939060;28;20412;-87
2021/10/23 10:02:10;;;;;;;11.95;8.45;;;;;;;;;;4939394;28;20432;-88
2021/10/23 10:04:37;;;;;;;9.47;8.27;;;;;;;;;;4942630;28;20507;-86
2021/10/23 10:07:06;;;;;;;10.10;7.70;;;;;;;;;;4939266;28;20475;-87
2021/10/23 10:09:33;;;;;;;9.83;8.10;;;;;;;;;;4941110;28;20456;-87
2021/10/23 10:12:00;;;;;;;9.95;7.97;;;;;;;;;;4939942;28;20422;-86
2021/10/23 10:14:33;;;;;;;12.02;8.25;;;;;;;;;;4941648;28;20427;-88
2021/10/23 10:17:02;;;;;;;9.77;8.10;;;;;;;;;;4928953;28;20567;-85
2021/10/23 10:19:29;;;;;;;10.43;7.93;;;;;;;;;;4941241;28;20408;-85
2021/10/23 10:22:07;;;;;;;9.95;7.88;;;;;;;;;;4938056;28;20439;-88
2021/10/23 10:24:37;;;;;;;9.17;7.80;;;;;;;;;;4938996;28;20456;-86
2021/10/23 10:27:06;;;;;;;8.63;7.40;;;;;;;;;;4935745;28;20410;-88
2021/10/23 10:29:44;;;;;;;10.40;7.60;;;;;;;;;;4938952;28;20510;-87
2021/10/23 10:32:17;;;;;;;10.90;8.50;;;;;;;;;;4944234;28;20495;-86
2021/10/23 10:38:25;;;;;;;10.95;7.68;;;;;;;;;;4911151;29;20431;-86
2021/10/23 10:44:15;;;;;;;9.18;7.10;;;;;;;;;;4933227;28;20457;-88
2021/10/23 10:47:10;;;;;;;9.93;7.77;;;;;;;;;;4936456;28;20499;-87
2021/10/23 10:49:50;;;;;;;8.50;7.23;;;;;;;;;;4899387;29;20447;-86
2021/10/23 10:52:54;;;;;;;8.68;7.50;;;;;;;;;;4938487;28;20415;-87
2021/10/23 10:55:24;;;;;;;7.22;6.03;;;;;;;;;;4934931;28;21219;-86
2021/10/23 10:58:06;;;;;;;7.07;5.72;;;;;;;;;;4937383;28;20420;-88
2021/10/23 11:01:12;;;;;;;6.95;6.00;;;;;;;;;;4930907;28;20450;-86
2021/10/23 11:03:47;;;;;;;7.23;6.20;;;;;;;;;;4935536;28;20408;-86
2021/10/23 11:06:45;;;;;;;8.98;6.30;;;;;;;;;;4942384;28;20432;-88
2021/10/23 11:09:45;;;;;;;6.65;5.50;;;;;;;;;;4945384;28;20408;-87
2021/10/23 11:12:36;;;;;;;7.25;5.80;;;;;;;;;;4942445;28;20817;-88
2021/10/23 11:15:03;;;;;;;6.68;5.72;;;;;;;;;;4942870;28;20414;-87
2021/10/23 11:17:31;;;;;;;6.85;5.38;;;;;;;;;;4938853;28;20406;-87
2021/10/23 11:20:02;;;;;;;10.52;6.70;;;;;;;;;;4931261;28;20438;-86
2021/10/23 11:22:32;;;;;;;8.50;6.78;;;;;;;;;;4919056;28;20421;-88
2021/10/23 11:25:05;;;;;;;7.88;6.30;;;;;;;;;;4937452;28;20422;-87
2021/10/23 11:27:40;;;;;;;8.32;6.75;;;;;;;;;;4942183;28;20780;-87
2021/10/23 11:30:13;;;;;;;6.63;6.00;;;;;;;;;;4942114;28;20418;-88
2021/10/23 11:32:45;;;;;;;8.68;6.60;;;;;;;;;;4943690;28;20437;-88
2021/10/23 11:35:12;;;;;;;7.28;6.30;;;;;;;;;;4941714;28;20410;-87
2021/10/23 11:37:40;;;;;;;8.65;6.90;;;;;;;;;;4945251;28;20412;-87
2021/10/23 11:40:09;;;;;;;8.32;6.50;;;;;;;;;;4943794;28;20823;-87
2021/10/23 11:42:45;;;;;;;8.37;6.43;;;;;;;;;;4939397;28;20504;-88
2021/10/23 11:45:15;;;;;;;9.45;7.20;;;;;;;;;;4936480;28;20552;-88
2021/10/23 11:47:43;;;;;;;8.55;7.57;;;;;;;;;;4937597;28;20417;-88
2021/10/23 11:50:22;;;;;;;7.72;6.72;;;;;;;;;;4940438;28;20428;-88
2021/10/23 11:52:51;;;;;;;7.97;7.18;;;;;;;;;;4891562;29;20412;-88
2021/10/23 11:55:33;;;;;;;7.07;6.38;;;;;;;;;;4922110;28;20486;-88
2021/10/23 11:58:04;;;;;;;8.27;6.03;;;;;;;;;;4922730;28;20419;-88
2021/10/23 12:00:36;;;;;;;8.55;6.07;;;;;;;;;;4937309;28;20452;-86
2021/10/23 12:03:05;;;;;;;8.15;5.88;;;;;;;;;;4941558;28;20473;-88
2021/10/23 12:05:41;;;;;;;9.05;6.90;;;;;;;;;;4937387;28;20482;-87
2021/10/23 12:08:31;;;;;;;8.50;7.13;;;;;;;;;;4945465;28;20412;-90
2021/10/23 12:11:03;;;;;;;7.10;6.40;;;;;;;;;;4947034;28;20449;-88
2021/10/23 12:13:44;;;;;;;8.05;5.97;;;;;;;;;;4945444;28;20418;-91
2021/10/23 12:16:11;;;;;;;5.80;5.00;;;;;;;;;;4941338;28;20420;-89
2021/10/23 12:18:39;;;;;;;6.13;5.50;;;;;;;;;;4939276;28;20424;-89
2021/10/23 12:21:17;;;;;;;6.97;5.40;;;;;;;;;;4934011;28;20432;-87
2021/10/23 12:23:46;;;;;;;6.35;5.20;;;;;;;;;;4909485;28;20421;-87
2021/10/23 12:26:14;;;;;;;7.23;5.17;;;;;;;;;;4941027;28;20428;-88
2021/10/23 12:29:02;;;;;;;6.82;4.95;;;;;;;;;;4924356;29;20421;-89
2021/10/23 12:32:00;;;;;;;5.13;4.53;;;;;;;;;;4918660;29;20802;-88
2021/10/23 12:34:29;;;;;;;6.07;4.80;;;;;;;;;;4938566;28;20468;-87
2021/10/23 12:39:38;;;;;;;5.55;4.70;;;;;;;;;;4895642;29;20426;-82
2021/10/23 12:42:05;;;;;;;5.00;4.43;;;;;;;;;;4902088;29;20828;-83
2021/10/23 12:44:33;;;;;;;5.10;4.45;;;;;;;;;;4900848;29;20583;-84
2021/10/23 12:47:01;;;;;;;5.55;3.90;;;;;;;;;;4900742;29;20417;-77
2021/10/23 12:49:28;;;;;;;9.13;8.23;;;;;;;;;;4907348;29;20980;-83
2021/10/23 12:51:55;;;;;;;6.63;6.03;;;;;;;;;;4901494;29;20419;-83
2021/10/23 12:54:22;;;;;;;5.03;4.28;;;;;;;;;;4905043;29;20498;-83
2021/10/23 12:56:49;;;;;;;5.03;4.00;;;;;;;;;;4907600;29;20417;-82
2021/10/23 12:59:15;;;;;;;4.45;3.90;;;;;;;;;;4902944;29;20479;-82
2021/10/23 13:01:44;;;;;;;4.57;3.57;;;;;;;;;;4908314;29;21453;-83
2021/10/23 13:04:11;;;;;;;4.10;3.70;;;;;;;;;;4909337;29;20423;-83
2021/10/23 13:06:41;;;;;;;3.85;3.55;;;;;;;;;;4908951;29;20931;-83
2021/10/23 13:09:08;;;;;;;5.13;3.60;;;;;;;;;;4910693;29;20433;-81
2021/10/23 13:11:39;;;;;;;5.47;3.67;;;;;;;;;;4899407;29;20418;-84
2021/10/23 13:14:06;;;;;;;4.25;3.85;;;;;;;;;;4908619;29;20434;-84
2021/10/23 13:16:33;;;;;;;5.23;4.13;;;;;;;;;;4910914;29;21236;-78
2021/10/23 13:19:01;;;;;;;6.00;4.50;;;;;;;;;;4909938;29;20419;-80
2021/10/23 13:21:28;;;;;;;5.13;3.80;;;;;;;;;;4912540;29;20498;-78
2021/10/23 13:23:55;;;;;;;4.63;3.50;;;;;;;;;;4909667;29;20435;-79
2021/10/23 13:26:22;;;;;;;3.97;3.50;;;;;;;;;;4911521;29;20416;-75
2021/10/23 13:28:49;;;;;;;4.25;3.85;;;;;;;;;;4909186;29;20488;-76
2021/10/23 13:31:18;;;;;;;5.03;3.83;;;;;;;;;;4910796;29;20488;-76
2021/10/23 13:33:44;;;;;;;5.32;3.85;;;;;;;;;;4907371;29;20826;-80
2021/10/23 13:36:13;;;;;;;4.00;3.22;;;;;;;;;;4915148;29;20781;-80
2021/10/23 13:38:39;;;;;;;3.50;3.20;;;;;;;;;;4929340;29;20960;-82
2021/10/23 13:41:07;;;;;;;3.30;3.00;;;;;;;;;;4945431;28;20832;-83
2021/10/23 13:43:34;;;;;;;4.67;3.60;;;;;;;;;;4946815;29;20432;-83
2021/10/23 13:46:01;;;;;;;3.67;3.20;;;;;;;;;;4942472;28;20924;-83
2021/10/23 13:48:28;;;;;;;4.25;3.20;;;;;;;;;;4938758;28;20452;-84
2021/10/23 13:50:56;;;;;;;3.63;2.90;;;;;;;;;;4940016;28;20750;-84
2021/10/23 13:53:25;;;;;;;4.57;3.00;;;;;;;;;;4937773;28;20986;-84
2021/10/23 13:55:51;;;;;;;6.22;3.25;;;;;;;;;;4941883;28;20418;-84
2021/10/23 13:58:18;;;;;;;4.78;3.40;;;;;;;;;;4939978;28;20421;-80
2021/10/23 14:00:45;;;;;;;3.10;2.80;;;;;;;;;;4939480;28;20427;-81
2021/10/23 14:03:13;;;;;;;4.13;3.42;;;;;;;;;;4942177;28;20420;-84
2021/10/23 14:05:40;;;;;;;3.30;3.00;;;;;;;;;;4942344;28;20431;-83
2021/10/23 14:08:07;;;;;;;5.45;3.40;;;;;;;;;;4936916;28;20414;-84
2021/10/23 14:10:35;;;;;;;3.97;3.30;;;;;;;;;;4937416;28;20413;-85
2021/10/23 14:13:02;;;;;;;5.55;3.60;;;;;;;;;;4941109;28;20420;-82
2021/10/23 14:15:28;;;;;;;5.20;3.50;;;;;;;;;;4939672;28;20420;-83
2021/10/23 14:17:55;;;;;;;4.80;3.30;;;;;;;;;;4935030;28;21172;-80
2021/10/23 14:20:22;;;;;;;3.78;3.20;;;;;;;;;;4940507;28;20951;-81
2021/10/23 14:22:49;;;;;;;4.45;3.03;;;;;;;;;;4940987;28;20438;-80
2021/10/23 14:25:16;;;;;;;4.07;3.22;;;;;;;;;;4939953;28;20420;-79
2021/10/23 14:27:57;;;;;;;3.75;3.28;;;;;;;;;;4935604;28;20412;-81
2021/10/23 14:30:25;;;;;;;4.60;3.47;;;;;;;;;;4936318;28;20439;-81
2021/10/23 14:32:52;;;;;;;3.60;3.20;;;;;;;;;;4934703;28;20412;-80
2021/10/23 14:35:19;;;;;;;4.72;3.30;;;;;;;;;;4936223;28;20508;-80
2021/10/23 14:37:46;;;;;;;4.28;3.20;;;;;;;;;;4935754;28;20418;-81
2021/10/23 14:40:13;;;;;;;3.63;3.22;;;;;;;;;;4939635;28;20405;-80